createdAt,value
2023-04-26T00:00:30.821Z,0
2023-04-26T00:01:27.537Z,0
2023-04-26T00:03:24.715Z,0
2023-04-26T00:04:25.014Z,0
2023-04-26T00:05:24.454Z,0
2023-04-26T00:06:23.813Z,0
2023-04-26T00:07:24.489Z,0
2023-04-26T00:08:38.073Z,0
2023-04-26T00:09:24.507Z,0
2023-04-26T00:10:24.278Z,0
2023-04-26T00:11:24.231Z,0
2023-04-26T00:12:24.816Z,0
2023-04-26T00:13:23.970Z,0
2023-04-26T00:14:24.064Z,0
2023-04-26T00:15:24.625Z,0
2023-04-26T00:16:38.031Z,0
2023-04-26T00:17:23.906Z,0
2023-04-26T00:18:24.223Z,0
2023-04-26T00:19:23.620Z,0
2023-04-26T00:20:24.978Z,0
2023-04-26T00:21:24.232Z,0
2023-04-26T00:22:24.278Z,0
2023-04-26T00:23:24.249Z,0
2023-04-26T00:24:24.012Z,0
2023-04-26T00:25:24.371Z,0
2023-04-26T00:26:24.571Z,0
2023-04-26T00:27:24.873Z,0
2023-04-26T00:28:23.856Z,0
2023-04-26T00:29:24.254Z,0
2023-04-26T00:30:24.543Z,0
2023-04-26T00:31:24.693Z,0
2023-04-26T00:32:24.261Z,0
2023-04-26T00:33:24.045Z,0
2023-04-26T00:34:24.151Z,0
2023-04-26T00:35:24.182Z,0
2023-04-26T00:36:24.182Z,0
2023-04-26T00:37:24.079Z,0
2023-04-26T00:38:24.013Z,0
2023-04-26T00:39:24.078Z,0
2023-04-26T00:40:24.317Z,0
2023-04-26T00:41:24.268Z,0
2023-04-26T00:42:24.148Z,0
2023-04-26T00:43:24.008Z,0
2023-04-26T00:44:23.985Z,0.109
2023-04-26T00:45:24.812Z,0
2023-04-26T00:46:24.733Z,0
2023-04-26T00:47:24.261Z,0
2023-04-26T00:48:24.767Z,0
2023-04-26T00:49:24.277Z,0
2023-04-26T00:50:24.163Z,0
2023-04-26T00:51:24.399Z,0
2023-04-26T00:52:24.477Z,0
2023-04-26T00:53:24.892Z,0
2023-04-26T00:54:24.255Z,0
2023-04-26T00:55:24.384Z,0
2023-04-26T00:56:24.861Z,0
2023-04-26T00:57:24.288Z,0
2023-04-26T00:58:24.595Z,0
2023-04-26T00:59:24.244Z,0
2023-04-26T01:00:26.101Z,0
2023-04-26T01:01:24.382Z,0
2023-04-26T01:02:24.994Z,0
2023-04-26T01:03:24.598Z,0
2023-04-26T01:04:24.746Z,0
2023-04-26T01:05:24.898Z,0
2023-04-26T01:06:24.297Z,0
2023-04-26T01:07:24.453Z,0
2023-04-26T01:08:24.350Z,0.109
2023-04-26T01:09:24.840Z,0
2023-04-26T01:10:25.376Z,0
2023-04-26T01:11:24.442Z,0
2023-04-26T01:12:24.594Z,0
2023-04-26T01:13:24.714Z,0
2023-04-26T01:14:24.187Z,0
2023-04-26T01:15:24.085Z,0.119
2023-04-26T01:16:24.549Z,0
2023-04-26T01:17:24.624Z,0
2023-04-26T01:18:24.093Z,0
2023-04-26T01:19:23.841Z,0
2023-04-26T01:20:24.055Z,0
2023-04-26T01:21:24.335Z,0
2023-04-26T01:22:24.463Z,0
2023-04-26T01:23:24.307Z,0
2023-04-26T01:24:24.321Z,0
2023-04-26T01:25:24.264Z,0
2023-04-26T01:26:24.560Z,0
2023-04-26T01:27:24.741Z,0
2023-04-26T01:28:24.430Z,0
2023-04-26T01:29:24.403Z,0
2023-04-26T01:30:24.702Z,0
2023-04-26T01:31:23.902Z,0
2023-04-26T01:32:25.119Z,0
2023-04-26T01:33:24.265Z,0
2023-04-26T01:34:24.287Z,0
2023-04-26T01:35:24.946Z,0
2023-04-26T01:36:24.603Z,0
2023-04-26T01:37:24.456Z,0
2023-04-26T01:38:24.499Z,0
2023-04-26T01:39:24.494Z,0
2023-04-26T01:40:24.307Z,0
2023-04-26T01:41:24.524Z,0
2023-04-26T01:42:24.681Z,0
2023-04-26T01:43:24.435Z,0
2023-04-26T01:44:24.378Z,0
2023-04-26T01:45:24.669Z,0
2023-04-26T01:46:25.005Z,0
2023-04-26T01:47:24.720Z,0
2023-04-26T01:48:24.145Z,0
2023-04-26T01:49:24.297Z,0
2023-04-26T01:50:24.683Z,0
2023-04-26T01:51:23.616Z,0
2023-04-26T01:52:25.081Z,0
2023-04-26T01:53:24.331Z,0
2023-04-26T01:54:24.697Z,0
2023-04-26T01:55:23.955Z,0
2023-04-26T01:56:24.645Z,0
2023-04-26T01:57:24.209Z,0
2023-04-26T01:58:24.744Z,0
2023-04-26T01:59:24.146Z,0
2023-04-26T02:00:25.801Z,0
2023-04-26T02:01:24.362Z,0
2023-04-26T02:02:24.356Z,0
2023-04-26T02:03:24.372Z,0
2023-04-26T02:04:24.445Z,0
2023-04-26T02:05:24.594Z,0
2023-04-26T02:06:24.051Z,0
2023-04-26T02:07:24.381Z,0
2023-04-26T02:08:24.489Z,0
2023-04-26T02:09:24.704Z,0
2023-04-26T02:10:24.740Z,0
2023-04-26T02:11:24.049Z,0
2023-04-26T02:12:24.004Z,0
2023-04-26T02:13:23.938Z,0
2023-04-26T02:14:24.470Z,0
2023-04-26T02:15:24.922Z,0
2023-04-26T02:16:24.400Z,0
2023-04-26T02:17:24.146Z,0
2023-04-26T02:18:24.614Z,0
2023-04-26T02:19:24.258Z,0
2023-04-26T02:20:24.792Z,0
2023-04-26T02:21:23.814Z,0.109
2023-04-26T02:22:23.987Z,0
2023-04-26T02:23:24.261Z,0
2023-04-26T02:24:24.589Z,0
2023-04-26T02:25:24.562Z,0
2023-04-26T02:26:24.518Z,0
2023-04-26T02:27:32.260Z,0
2023-04-26T02:28:23.714Z,0
2023-04-26T02:29:36.358Z,0
2023-04-26T02:30:24.532Z,0
2023-04-26T02:31:24.564Z,0
2023-04-26T02:32:23.942Z,0
2023-04-26T02:33:24.158Z,0
2023-04-26T02:34:24.027Z,0
2023-04-26T02:35:24.033Z,0
2023-04-26T02:36:24.549Z,0
2023-04-26T02:37:24.689Z,0
2023-04-26T02:38:24.152Z,0
2023-04-26T02:39:24.125Z,0
2023-04-26T02:40:24.401Z,0
2023-04-26T02:41:24.524Z,0
2023-04-26T02:42:23.932Z,0
2023-04-26T02:43:24.321Z,0
2023-04-26T02:44:23.993Z,0
2023-04-26T02:45:24.511Z,0
2023-04-26T02:46:24.871Z,0
2023-04-26T02:47:23.854Z,0
2023-04-26T02:48:24.525Z,0
2023-04-26T02:49:24.239Z,0
2023-04-26T02:50:24.395Z,0
2023-04-26T02:51:24.479Z,0
2023-04-26T02:52:24.168Z,0
2023-04-26T02:53:24.262Z,0
2023-04-26T02:54:24.141Z,0
2023-04-26T02:55:23.869Z,0
2023-04-26T02:56:24.040Z,0
2023-04-26T02:57:24.601Z,0
2023-04-26T02:58:24.719Z,0
2023-04-26T02:59:24.140Z,0
2023-04-26T03:00:25.445Z,0
2023-04-26T03:01:24.700Z,0
2023-04-26T03:02:24.828Z,0
2023-04-26T03:03:24.519Z,0
2023-04-26T03:04:24.418Z,0
2023-04-26T03:05:24.629Z,0
2023-04-26T03:06:24.045Z,0
2023-04-26T03:07:23.994Z,0
2023-04-26T03:08:24.344Z,0
2023-04-26T03:09:24.267Z,0
2023-04-26T03:10:24.269Z,0
2023-04-26T03:11:24.296Z,0
2023-04-26T03:12:24.148Z,0.109
2023-04-26T03:13:24.294Z,0
2023-04-26T03:14:24.759Z,0
2023-04-26T03:15:24.123Z,0
2023-04-26T03:16:24.380Z,0.109
2023-04-26T03:17:24.229Z,0
2023-04-26T03:18:24.756Z,0.109
2023-04-26T03:19:24.064Z,0
2023-04-26T03:20:24.523Z,0
2023-04-26T03:21:24.528Z,0
2023-04-26T03:22:24.610Z,0
2023-04-26T03:23:24.382Z,0
2023-04-26T03:24:24.144Z,0
2023-04-26T03:25:24.839Z,0
2023-04-26T03:26:24.273Z,0.109
2023-04-26T03:27:24.396Z,0
2023-04-26T03:28:24.560Z,0.109
2023-04-26T03:29:24.160Z,0
2023-04-26T03:30:24.864Z,0
2023-04-26T03:31:24.380Z,0
2023-04-26T03:32:24.873Z,0
2023-04-26T03:33:24.055Z,0
2023-04-26T03:34:24.368Z,13600
2023-04-26T03:35:24.606Z,0
2023-04-26T03:36:24.261Z,0
2023-04-26T03:37:24.209Z,0
2023-04-26T03:38:24.172Z,0
2023-04-26T03:39:24.497Z,13600
2023-04-26T03:40:24.618Z,0
2023-04-26T03:41:24.387Z,0
2023-04-26T03:42:24.806Z,0
2023-04-26T03:43:24.214Z,0
2023-04-26T03:44:24.702Z,0
2023-04-26T03:45:24.693Z,0
2023-04-26T03:46:24.345Z,0.109
2023-04-26T03:47:24.181Z,0.170
2023-04-26T03:48:24.509Z,0.050
2023-04-26T03:49:24.518Z,0.280
2023-04-26T03:50:24.536Z,0.620
2023-04-26T03:51:23.703Z,0
2023-04-26T03:52:24.259Z,0.400
2023-04-26T03:53:24.139Z,0.519
2023-04-26T03:54:24.161Z,1.289
2023-04-26T03:55:24.638Z,1.039
2023-04-26T03:56:24.312Z,1.639
2023-04-26T03:57:24.688Z,2.230
2023-04-26T03:58:24.075Z,3
2023-04-26T03:59:24.566Z,3.410
2023-04-26T04:00:25.023Z,4.440
2023-04-26T04:01:24.248Z,5.5
2023-04-26T04:02:25.180Z,6.679
2023-04-26T04:03:24.856Z,8.069
2023-04-26T04:04:24.727Z,9.520
2023-04-26T04:05:25.167Z,11.51
2023-04-26T04:06:24.422Z,13.19
2023-04-26T04:07:24.334Z,15.60
2023-04-26T04:08:24.755Z,18.29
2023-04-26T04:09:24.533Z,21.5
2023-04-26T04:10:24.641Z,24.70
2023-04-26T04:11:24.609Z,28.89
2023-04-26T04:12:24.542Z,33.40
2023-04-26T04:13:24.949Z,38.20
2023-04-26T04:14:24.860Z,43.40
2023-04-26T04:15:25.660Z,49.40
2023-04-26T04:16:24.469Z,55.70
2023-04-26T04:17:24.432Z,62.59
2023-04-26T04:18:24.440Z,70.30
2023-04-26T04:19:24.655Z,78.19
2023-04-26T04:20:24.450Z,87.30
2023-04-26T04:21:23.957Z,97.30
2023-04-26T04:22:24.274Z,107
2023-04-26T04:23:24.776Z,119
2023-04-26T04:24:24.604Z,132
2023-04-26T04:25:24.995Z,145
2023-04-26T04:26:24.123Z,158
2023-04-26T04:27:24.640Z,171
2023-04-26T04:28:24.672Z,185
2023-04-26T04:29:24.248Z,199
2023-04-26T04:30:24.845Z,213
2023-04-26T04:31:24.676Z,227
2023-04-26T04:32:24.312Z,241
2023-04-26T04:33:24.764Z,254
2023-04-26T04:34:24.028Z,267
2023-04-26T04:35:25.284Z,281
2023-04-26T04:36:24.494Z,295
2023-04-26T04:37:24.327Z,310
2023-04-26T04:38:24.589Z,324
2023-04-26T04:39:24.377Z,338
2023-04-26T04:40:24.641Z,353
2023-04-26T04:41:24.262Z,365
2023-04-26T04:42:24.760Z,378
2023-04-26T04:43:24.714Z,395
2023-04-26T04:44:24.390Z,406.7
2023-04-26T04:45:24.510Z,416
2023-04-26T04:46:24.752Z,432
2023-04-26T04:47:24.712Z,445
2023-04-26T04:48:24.633Z,459
2023-04-26T04:49:24.571Z,473
2023-04-26T04:50:32.751Z,489
2023-04-26T04:51:24.422Z,503
2023-04-26T04:52:32.993Z,517
2023-04-26T04:53:24.744Z,528.0
2023-04-26T04:54:24.304Z,539
2023-04-26T04:55:24.194Z,554
2023-04-26T04:56:24.432Z,574
2023-04-26T04:57:24.513Z,595
2023-04-26T04:58:24.819Z,615
2023-04-26T04:59:24.749Z,637
2023-04-26T05:00:40.275Z,659
2023-04-26T05:01:25.167Z,679
2023-04-26T05:02:24.997Z,700
2023-04-26T05:03:24.768Z,721
2023-04-26T05:04:25.022Z,742
2023-04-26T05:05:24.428Z,767
2023-04-26T05:06:24.173Z,795
2023-04-26T05:07:24.819Z,820
2023-04-26T05:08:24.938Z,850
2023-04-26T05:09:24.987Z,900
2023-04-26T05:10:25.292Z,1030
2023-04-26T05:11:24.926Z,1050
2023-04-26T05:12:24.834Z,1043
2023-04-26T05:13:24.687Z,1090
2023-04-26T05:14:24.514Z,1170
2023-04-26T05:15:24.382Z,1192
2023-04-26T05:16:24.800Z,1195.
2023-04-26T05:17:25.106Z,1160
2023-04-26T05:18:25.275Z,1103
2023-04-26T05:19:24.815Z,1120
2023-04-26T05:20:25.260Z,1160.
2023-04-26T05:21:24.730Z,1140
2023-04-26T05:22:25.190Z,1118
2023-04-26T05:23:25.129Z,1110.
2023-04-26T05:24:25.090Z,1100
2023-04-26T05:25:25.348Z,1085.
2023-04-26T05:26:24.251Z,1100
2023-04-26T05:27:24.867Z,1115
2023-04-26T05:28:24.709Z,1150
2023-04-26T05:29:24.629Z,1220
2023-04-26T05:30:24.992Z,1220
2023-04-26T05:31:24.722Z,1170
2023-04-26T05:32:24.381Z,1128
2023-04-26T05:33:24.553Z,1113.
2023-04-26T05:34:24.517Z,1111.
2023-04-26T05:35:24.836Z,1109
2023-04-26T05:36:25.207Z,1086
2023-04-26T05:37:24.399Z,1062
2023-04-26T05:38:24.579Z,1041
2023-04-26T05:39:24.553Z,1010
2023-04-26T05:40:24.738Z,1002
2023-04-26T05:41:24.923Z,1000
2023-04-26T05:42:24.683Z,986.5
2023-04-26T05:43:24.671Z,984.4
2023-04-26T05:44:24.511Z,996
2023-04-26T05:45:25.033Z,1018.
2023-04-26T05:46:24.897Z,1024.
2023-04-26T05:47:24.924Z,1031
2023-04-26T05:48:25.525Z,1050
2023-04-26T05:49:25.796Z,1090
2023-04-26T05:50:24.408Z,1118
2023-04-26T05:51:24.454Z,1134
2023-04-26T05:52:24.742Z,1150
2023-04-26T05:53:24.416Z,1189
2023-04-26T05:54:24.880Z,1206
2023-04-26T05:55:24.992Z,1230
2023-04-26T05:56:24.744Z,1256
2023-04-26T05:57:24.759Z,1271
2023-04-26T05:58:25.083Z,1271.
2023-04-26T05:59:24.693Z,1278
2023-04-26T06:00:25.870Z,1304
2023-04-26T06:01:24.182Z,1309
2023-04-26T06:02:24.939Z,1307
2023-04-26T06:03:24.316Z,1310
2023-04-26T06:04:24.910Z,1323
2023-04-26T06:05:24.414Z,1339
2023-04-26T06:06:24.750Z,1358
2023-04-26T06:07:24.764Z,1383
2023-04-26T06:08:24.853Z,1399
2023-04-26T06:09:24.761Z,1408.
2023-04-26T06:10:25.350Z,1408
2023-04-26T06:11:25.038Z,1426
2023-04-26T06:12:24.864Z,1438
2023-04-26T06:13:25.129Z,1442.
2023-04-26T06:15:24.901Z,1340
2023-04-26T06:16:24.727Z,1370
2023-04-26T06:17:24.911Z,1400
2023-04-26T06:18:24.449Z,1450
2023-04-26T06:19:25.465Z,1480
2023-04-26T06:20:24.681Z,1507.
2023-04-26T06:21:24.285Z,1508
2023-04-26T06:22:24.825Z,1501.
2023-04-26T06:23:24.479Z,1497.
2023-04-26T06:24:24.898Z,1493.
2023-04-26T06:25:24.286Z,1503
2023-04-26T06:26:24.776Z,1505.
2023-04-26T06:27:24.620Z,1507.
2023-04-26T06:28:24.778Z,1501.
2023-04-26T06:29:24.922Z,1499.
2023-04-26T06:30:25.074Z,1495
2023-04-26T06:31:25.371Z,1475
2023-04-26T06:32:24.877Z,1488
2023-04-26T06:33:24.322Z,1510
2023-04-26T06:34:24.842Z,1541
2023-04-26T06:35:24.726Z,1547.
2023-04-26T06:36:24.365Z,1551
2023-04-26T06:37:24.420Z,1565
2023-04-26T06:38:25.089Z,1585
2023-04-26T06:39:24.577Z,1612
2023-04-26T06:40:24.562Z,1635
2023-04-26T06:41:24.309Z,1667
2023-04-26T06:42:25.100Z,1700
2023-04-26T06:43:25.238Z,1770
2023-04-26T06:44:24.518Z,1820
2023-04-26T06:45:25.872Z,1850
2023-04-26T06:46:25.651Z,1885
2023-04-26T06:47:24.671Z,1894
2023-04-26T06:48:24.416Z,1890.
2023-04-26T06:49:24.675Z,1890
2023-04-26T06:50:24.331Z,1940
2023-04-26T06:51:25.154Z,1961.
2023-04-26T06:52:24.275Z,1956
2023-04-26T06:53:24.755Z,1880
2023-04-26T06:54:25.275Z,1850
2023-04-26T06:55:25.722Z,1890
2023-04-26T06:56:24.943Z,1940
2023-04-26T06:57:25.150Z,2000
2023-04-26T06:58:25.180Z,2100
2023-04-26T06:59:25.100Z,2200
2023-04-26T07:00:26.043Z,2350
2023-04-26T07:01:24.981Z,2384
2023-04-26T07:02:25.489Z,2400
2023-04-26T07:03:24.761Z,2420
2023-04-26T07:04:24.891Z,2440
2023-04-26T07:05:24.232Z,2490
2023-04-26T07:06:24.606Z,2500
2023-04-26T07:07:29.511Z,2610
2023-04-26T07:08:24.692Z,2560
2023-04-26T07:09:24.550Z,2610
2023-04-26T07:10:25.003Z,2630
2023-04-26T07:11:26.034Z,2700
2023-04-26T07:12:24.079Z,2770
2023-04-26T07:13:29.920Z,2820
2023-04-26T07:14:25.683Z,2850
2023-04-26T07:15:32.930Z,2890
2023-04-26T07:16:25.014Z,2920
2023-04-26T07:17:24.797Z,2873
2023-04-26T07:18:24.771Z,2920
2023-04-26T07:19:24.594Z,2900
2023-04-26T07:20:25.016Z,3060
2023-04-26T07:21:24.778Z,3020
2023-04-26T07:22:24.262Z,3000
2023-04-26T07:23:24.945Z,3200
2023-04-26T07:24:24.891Z,3300
2023-04-26T07:25:24.691Z,3400
2023-04-26T07:26:24.635Z,3400
2023-04-26T07:27:24.693Z,3610
2023-04-26T07:28:24.857Z,3680
2023-04-26T07:29:24.832Z,3720
2023-04-26T07:30:24.941Z,3720
2023-04-26T07:31:24.908Z,3600
2023-04-26T07:32:25.452Z,3560
2023-04-26T07:33:24.952Z,3540
2023-04-26T07:34:24.933Z,3530
2023-04-26T07:35:25.028Z,3530
2023-04-26T07:36:25.308Z,3540
2023-04-26T07:37:25.073Z,3530
2023-04-26T07:38:24.527Z,3480
2023-04-26T07:39:24.713Z,3514
2023-04-26T07:40:25.084Z,3570
2023-04-26T07:41:24.586Z,3700
2023-04-26T07:42:24.937Z,3880
2023-04-26T07:43:24.841Z,3880
2023-04-26T07:44:24.931Z,3940
2023-04-26T07:45:25.238Z,4000
2023-04-26T07:46:25.175Z,4070
2023-04-26T07:47:24.789Z,4000
2023-04-26T07:48:24.468Z,4180
2023-04-26T07:49:24.701Z,4300
2023-04-26T07:50:25.001Z,4400
2023-04-26T07:51:25.708Z,4550
2023-04-26T07:52:24.731Z,4000
2023-04-26T07:53:24.641Z,4000
2023-04-26T07:54:24.354Z,4500
2023-04-26T07:55:25.083Z,0
2023-04-26T07:56:24.620Z,5720
2023-04-26T07:57:24.518Z,5600
2023-04-26T07:58:24.637Z,5800
2023-04-26T07:59:24.361Z,5000
2023-04-26T08:00:25.206Z,5000
2023-04-26T08:01:25.098Z,4000
2023-04-26T08:02:36.706Z,4420
2023-04-26T08:03:24.481Z,4300
2023-04-26T08:04:25.170Z,4100
2023-04-26T08:05:24.845Z,4000
2023-04-26T08:06:24.989Z,4500
2023-04-26T08:07:24.663Z,4600
2023-04-26T08:08:24.581Z,4600
2023-04-26T08:09:24.732Z,4000
2023-04-26T08:10:25.455Z,4200
2023-04-26T08:11:24.831Z,4450
2023-04-26T08:12:25.322Z,4300
2023-04-26T08:13:27.811Z,4000
2023-04-26T08:14:25.294Z,5000
2023-04-26T08:15:25.591Z,5100
2023-04-26T08:16:24.743Z,5000
2023-04-26T08:17:25.323Z,5600
2023-04-26T08:18:25.314Z,5000
2023-04-26T08:19:25.086Z,5300
2023-04-26T08:20:25.282Z,5200
2023-04-26T08:21:24.970Z,5100
2023-04-26T08:22:24.987Z,5020
2023-04-26T08:23:25.128Z,5100
2023-04-26T08:24:25.150Z,5200
2023-04-26T08:25:24.809Z,5400
2023-04-26T08:26:24.575Z,5400
2023-04-26T08:27:24.643Z,5700
2023-04-26T08:28:24.800Z,6000
2023-04-26T08:29:25.182Z,6300
2023-04-26T08:30:24.668Z,6000
2023-04-26T08:31:24.816Z,5000
2023-04-26T08:32:25.096Z,5400
2023-04-26T08:33:25.179Z,5400
2023-04-26T08:34:24.670Z,5100
2023-04-26T08:35:24.923Z,4900
2023-04-26T08:36:24.716Z,4800
2023-04-26T08:37:24.629Z,4720
2023-04-26T08:38:25.002Z,4732
2023-04-26T08:39:25.332Z,4770
2023-04-26T08:40:25.741Z,4770
2023-04-26T08:41:25.541Z,4770
2023-04-26T08:42:25.059Z,4710
2023-04-26T08:43:25.215Z,4720
2023-04-26T08:44:24.906Z,4800
2023-04-26T08:45:25.084Z,4865
2023-04-26T08:46:25.069Z,4900
2023-04-26T08:47:25.340Z,5000
2023-04-26T08:48:25.019Z,5000
2023-04-26T08:49:24.597Z,5000
2023-04-26T08:50:24.857Z,5000
2023-04-26T08:51:24.649Z,5000
2023-04-26T08:52:25.068Z,5030
2023-04-26T08:53:25.383Z,5000
2023-04-26T08:54:24.616Z,5000
2023-04-26T08:55:25.023Z,5500
2023-04-26T08:56:25.095Z,5000
2023-04-26T08:57:24.957Z,5700
2023-04-26T08:58:24.857Z,6000
2023-04-26T08:59:24.619Z,6300
2023-04-26T09:00:25.236Z,6200
2023-04-26T09:01:24.980Z,6400
2023-04-26T09:02:24.687Z,6400
2023-04-26T09:03:24.635Z,5000
2023-04-26T09:04:25.006Z,5000
2023-04-26T09:05:24.796Z,5400
2023-04-26T09:06:24.849Z,5500
2023-04-26T09:07:24.550Z,5700
2023-04-26T09:08:24.143Z,5500
2023-04-26T09:09:24.798Z,5600
2023-04-26T09:10:24.689Z,5600
2023-04-26T09:11:24.683Z,5800
2023-04-26T09:12:25.112Z,5800
2023-04-26T09:13:24.337Z,5700
2023-04-26T09:14:24.871Z,5000
2023-04-26T09:15:25.315Z,5300
2023-04-26T09:16:25.065Z,5100
2023-04-26T09:17:25.371Z,4900
2023-04-26T09:18:24.466Z,4800
2023-04-26T09:19:25.105Z,4700
2023-04-26T09:20:25.152Z,4400
2023-04-26T09:21:25.164Z,4220
2023-04-26T09:22:24.599Z,4170
2023-04-26T09:23:24.923Z,4166
2023-04-26T09:24:24.921Z,4220
2023-04-26T09:25:25.137Z,4300
2023-04-26T09:26:25.375Z,4500
2023-04-26T09:27:25.211Z,4700
2023-04-26T09:28:24.770Z,5000
2023-04-26T09:29:24.962Z,5200
2023-04-26T09:30:30.585Z,5000
2023-04-26T09:31:25.331Z,5000
2023-04-26T09:32:25.066Z,5000
2023-04-26T09:33:24.299Z,6000
2023-04-26T09:34:24.454Z,5000
2023-04-26T09:35:25.124Z,5000
2023-04-26T09:36:24.999Z,5000
2023-04-26T09:37:25.769Z,4800
2023-04-26T09:38:25.127Z,4650
2023-04-26T09:39:24.993Z,4580
2023-04-26T09:40:25.687Z,4500
2023-04-26T09:41:25.604Z,4640
2023-04-26T09:42:25.206Z,4600
2023-04-26T09:43:24.863Z,4500
2023-04-26T09:44:25.187Z,4700
2023-04-26T09:45:25.389Z,0
2023-04-26T09:46:24.586Z,5000
2023-04-26T09:47:25.144Z,0
2023-04-26T09:48:24.793Z,7000
2023-04-26T09:49:25.017Z,7800
2023-04-26T09:50:25.498Z,7700
2023-04-26T09:51:26.090Z,7000
2023-04-26T09:52:25.446Z,0
2023-04-26T09:53:25.188Z,6600
2023-04-26T09:54:24.359Z,6000
2023-04-26T09:55:34.107Z,5000
2023-04-26T09:56:25.533Z,0
2023-04-26T09:57:24.695Z,4000
2023-04-26T09:58:25.166Z,0
2023-04-26T09:59:25.267Z,0
2023-04-26T10:00:39.673Z,0
2023-04-26T10:01:25.181Z,8000
2023-04-26T10:02:25.342Z,8440
2023-04-26T10:03:25.204Z,8410
2023-04-26T10:04:24.797Z,8400
2023-04-26T10:05:25.112Z,9000
2023-04-26T10:06:25.617Z,9700
2023-04-26T10:07:24.847Z,9000
2023-04-26T10:08:25.084Z,0
2023-04-26T10:09:24.890Z,0
2023-04-26T10:10:25.604Z,0
2023-04-26T10:11:25.814Z,0
2023-04-26T10:12:24.986Z,6000
2023-04-26T10:13:24.907Z,6000
2023-04-26T10:14:24.821Z,6000
2023-04-26T10:15:24.900Z,5000
2023-04-26T10:16:25.158Z,5450
2023-04-26T10:17:25.544Z,0
2023-04-26T10:18:25.179Z,0
2023-04-26T10:19:25.006Z,5000
2023-04-26T10:20:25.308Z,0
2023-04-26T10:21:25.251Z,5000
2023-04-26T10:22:25.082Z,6000
2023-04-26T10:23:25.472Z,0
2023-04-26T10:24:24.791Z,6690
2023-04-26T10:25:24.817Z,6710
2023-04-26T10:26:24.952Z,6800
2023-04-26T10:27:24.974Z,6900
2023-04-26T10:28:25.007Z,7100
2023-04-26T10:29:24.906Z,7000
2023-04-26T10:30:25.134Z,0
2023-04-26T10:31:25.098Z,0
2023-04-26T10:32:25.488Z,0
2023-04-26T10:33:25.290Z,8000
2023-04-26T10:34:25.295Z,0
2023-04-26T10:35:24.853Z,0
2023-04-26T10:36:25.217Z,0
2023-04-26T10:37:24.378Z,7000
2023-04-26T10:38:24.620Z,6950
2023-04-26T10:39:24.826Z,7000
2023-04-26T10:40:25.268Z,6000
2023-04-26T10:41:25.077Z,6640
2023-04-26T10:42:25.419Z,6800
2023-04-26T10:43:26.164Z,0
2023-04-26T10:44:24.932Z,7000
2023-04-26T10:45:25.740Z,8000
2023-04-26T10:46:25.470Z,8400
2023-04-26T10:47:25.233Z,8000
2023-04-26T10:48:24.656Z,8000
2023-04-26T10:49:26.646Z,8700
2023-04-26T10:50:25.588Z,8800
2023-04-26T10:51:23.652Z,0
2023-04-26T10:53:30.159Z,0
2023-04-26T10:54:24.858Z,10000
2023-04-26T10:55:25.555Z,0
2023-04-26T10:56:24.973Z,0
2023-04-26T10:57:25.361Z,0
2023-04-26T10:58:24.826Z,0
2023-04-26T10:59:39.734Z,0
2023-04-26T11:00:27.917Z,0
2023-04-26T11:01:24.748Z,8000
2023-04-26T11:02:25.003Z,0
2023-04-26T11:03:25.101Z,9000
2023-04-26T11:04:25.330Z,8700
2023-04-26T11:05:25.490Z,8660
2023-04-26T11:06:24.716Z,0
2023-04-26T11:07:24.764Z,0
2023-04-26T11:08:24.304Z,10000
2023-04-26T11:09:24.928Z,10000
2023-04-26T11:10:25.034Z,10000
2023-04-26T11:11:25.251Z,0
2023-04-26T11:12:24.777Z,10000
2023-04-26T11:13:24.933Z,0
2023-04-26T11:15:30.916Z,0
2023-04-26T11:16:25.123Z,10000
2023-04-26T11:17:25.017Z,0
2023-04-26T11:18:25.334Z,0
2023-04-26T11:19:25.602Z,0
2023-04-26T11:20:26.619Z,0
2023-04-26T11:21:26.319Z,0
2023-04-26T11:22:25.039Z,10000
2023-04-26T11:23:24.409Z,10000
2023-04-26T11:24:25.023Z,10000
2023-04-26T11:25:24.991Z,11000
2023-04-26T11:26:25.091Z,0
2023-04-26T11:27:24.717Z,0
2023-04-26T11:28:25.689Z,10000
2023-04-26T11:29:24.631Z,10000
2023-04-26T11:30:25.413Z,10000
2023-04-26T11:31:25.610Z,9000
2023-04-26T11:32:25.468Z,8000
2023-04-26T11:33:25.042Z,8300
2023-04-26T11:34:24.685Z,8300
2023-04-26T11:35:25.380Z,9000
2023-04-26T11:36:24.902Z,10000
2023-04-26T11:37:25.656Z,0
2023-04-26T11:38:25.210Z,0
2023-04-26T11:39:25.022Z,8000
2023-04-26T11:40:25.656Z,8000
2023-04-26T11:41:24.706Z,8000
2023-04-26T11:42:24.948Z,8000
2023-04-26T11:43:25.771Z,8570
2023-04-26T11:44:24.999Z,8000
2023-04-26T11:45:25.465Z,9000
2023-04-26T11:46:25.380Z,9000
2023-04-26T11:47:24.619Z,0
2023-04-26T11:48:25.554Z,0
2023-04-26T11:49:25.166Z,0
2023-04-26T11:50:24.731Z,10000
2023-04-26T11:51:24.930Z,9000
2023-04-26T11:52:25.459Z,8800
2023-04-26T11:53:24.911Z,9000
2023-04-26T11:54:25.661Z,9000
2023-04-26T11:55:30.104Z,10000
2023-04-26T11:56:24.929Z,0
2023-04-26T11:57:30.539Z,0
2023-04-26T11:58:24.919Z,10000
2023-04-26T11:59:25.005Z,0
2023-04-26T12:00:26.211Z,10000
2023-04-26T12:01:30.208Z,10700
2023-04-26T12:02:25.688Z,10000
2023-04-26T12:03:30.172Z,0
2023-04-26T12:04:26.991Z,0
2023-04-26T12:05:25.502Z,0
2023-04-26T12:06:24.881Z,10000
2023-04-26T12:07:25.282Z,0
2023-04-26T12:08:25.179Z,0
2023-04-26T12:09:25.521Z,11200
2023-04-26T12:10:25.247Z,10000
2023-04-26T12:11:25.489Z,10000
2023-04-26T12:12:26.078Z,10000
2023-04-26T12:13:25.423Z,9000
2023-04-26T12:14:25.339Z,9440
2023-04-26T12:15:25.706Z,9300
2023-04-26T12:16:27.106Z,9000
2023-04-26T12:17:25.626Z,8990
2023-04-26T12:18:25.724Z,9030
2023-04-26T12:19:25.488Z,8900
2023-04-26T12:20:25.217Z,9000
2023-04-26T12:21:25.625Z,9000
2023-04-26T12:22:25.242Z,9000
2023-04-26T12:23:24.452Z,9000
2023-04-26T12:24:25.428Z,8000
2023-04-26T12:25:39.271Z,7000
2023-04-26T12:26:24.522Z,7000
2023-04-26T12:27:24.669Z,7000
2023-04-26T12:28:25.529Z,7000
2023-04-26T12:29:25.640Z,7060
2023-04-26T12:30:25.499Z,7000
2023-04-26T12:31:25.433Z,7000
2023-04-26T12:32:25.320Z,7000
2023-04-26T12:33:43.741Z,8000
2023-04-26T12:34:25.174Z,0
2023-04-26T12:35:24.931Z,0
2023-04-26T12:36:24.867Z,0
2023-04-26T12:37:25.139Z,0
2023-04-26T12:38:25.666Z,10000
2023-04-26T12:39:25.414Z,10000
2023-04-26T12:40:25.916Z,0
2023-04-26T12:41:25.124Z,10000
2023-04-26T12:42:24.408Z,10000
2023-04-26T12:43:25.543Z,10000
2023-04-26T12:44:24.849Z,10000
2023-04-26T12:45:25.700Z,10000
2023-04-26T12:46:25.808Z,10000
2023-04-26T12:47:25.279Z,16000
2023-04-26T12:48:25.539Z,16000
2023-04-26T12:49:25.546Z,10000
2023-04-26T12:50:25.930Z,10000
2023-04-26T12:51:25.011Z,10000
2023-04-26T12:52:25.539Z,10000
2023-04-26T12:53:26.097Z,10000
2023-04-26T12:54:25.674Z,11700
2023-04-26T12:55:25.768Z,11000
2023-04-26T12:56:26.152Z,12000
2023-04-26T12:57:25.700Z,0
2023-04-26T12:58:25.382Z,0
2023-04-26T12:59:25.478Z,10000
2023-04-26T13:00:26.422Z,10000
2023-04-26T13:01:25.690Z,10000
2023-04-26T13:02:25.679Z,0
2023-04-26T13:03:25.673Z,0
2023-04-26T13:04:25.052Z,0
2023-04-26T13:05:25.193Z,0
2023-04-26T13:06:24.954Z,0
2023-04-26T13:07:25.500Z,0
2023-04-26T13:08:25.510Z,0
2023-04-26T13:09:24.874Z,0
2023-04-26T13:10:24.879Z,0
2023-04-26T13:11:25.022Z,0
2023-04-26T13:12:25.660Z,0
2023-04-26T13:13:32.302Z,0
2023-04-26T13:14:25.148Z,0
2023-04-26T13:15:25.958Z,0
2023-04-26T13:16:25.093Z,10000
2023-04-26T13:17:24.982Z,0
2023-04-26T13:18:24.888Z,0
2023-04-26T13:19:24.527Z,0
2023-04-26T13:20:26.362Z,0
2023-04-26T13:21:25.382Z,0
2023-04-26T13:22:25.181Z,0
2023-04-26T13:23:24.911Z,0
2023-04-26T13:24:25.676Z,0
2023-04-26T13:25:25.562Z,0
2023-04-26T13:26:27.687Z,0
2023-04-26T13:27:25.585Z,0
2023-04-26T13:28:24.989Z,0
2023-04-26T13:29:25.390Z,0
2023-04-26T13:30:25.528Z,0
2023-04-26T13:31:25.328Z,0
2023-04-26T13:32:24.845Z,0
2023-04-26T13:33:24.884Z,0
2023-04-26T13:34:25.048Z,0
2023-04-26T13:35:25.937Z,0
2023-04-26T13:36:25.537Z,0
2023-04-26T13:37:25.034Z,0
2023-04-26T13:38:26.146Z,0
2023-04-26T13:39:25.588Z,0
2023-04-26T13:40:25.021Z,0
2023-04-26T13:41:25.748Z,0
2023-04-26T13:42:25.303Z,0
2023-04-26T13:43:24.889Z,0
2023-04-26T13:44:24.985Z,0
2023-04-26T13:45:25.045Z,0
2023-04-26T13:46:25.527Z,0
2023-04-26T13:47:25.254Z,0
2023-04-26T13:48:24.586Z,0
2023-04-26T13:49:24.906Z,0
2023-04-26T13:50:25.388Z,0
2023-04-26T13:51:24.655Z,0
2023-04-26T13:52:25.062Z,0
2023-04-26T13:53:25.286Z,0